Time;durP1;ratioP1;P1;durP2;ratioP2;P2;SDS_P1;SDS_P2;PMS_P1;PMS_P2;Temp;Humidity;BMP_temperature;BMP_pressure;BME280_temperature;BME280_humidity;BME280_pressure;Samples;Min_cycle;Max_cycle;Signal;HPM_P1;HPM_P2
2021/04/13 00:01:28;;;;;;;13.82;5.90;;;;;;;9.92;72.64;93283.47;4964778;28;20054;-91
2021/04/13 00:04:01;;;;;;;19.27;7.30;;;;;;;9.94;72.46;93270.44;4987557;28;20053;-91
2021/04/13 00:06:31;;;;;;;13.63;6.53;;;;;;;10.02;71.57;93278.72;4992183;28;20046;-90
2021/04/13 00:09:01;;;;;;;18.45;6.47;;;;;;;10.20;70.66;93284.16;4981055;28;20538;-91
2021/04/13 00:11:29;;;;;;;10.95;5.28;;;;;;;10.33;69.58;93296.94;4991840;28;20580;-90
2021/04/13 00:13:59;;;;;;;22.52;7.78;;;;;;;10.43;70.37;93299.84;5011487;28;20486;-90
2021/04/13 00:16:34;;;;;;;8.90;5.70;;;;;;;10.27;70.33;93287.44;5011658;28;20046;-89
2021/04/13 00:19:00;;;;;;;8.25;4.32;;;;;;;10.26;69.70;93294.38;5011666;28;20053;-91
2021/04/13 00:21:27;;;;;;;;;;;;;;;10.46;68.88;93308.91;5012011;28;20045;-92
2021/04/13 00:23:56;;;;;;;10.13;4.60;;;;;;;10.44;70.29;93313.47;5011658;28;19921;-90
2021/04/13 00:26:24;;;;;;;10.73;4.40;;;;;;;10.45;70.02;93316.84;5011869;28;20119;-91
2021/04/13 00:28:54;;;;;;;8.82;5.07;;;;;;;10.39;68.33;93301.25;5011425;28;20057;-90
2021/04/13 00:31:39;;;;;;;13.40;5.13;;;;;;;10.63;68.86;93326.41;5011328;28;20054;-91
2021/04/13 00:34:08;;;;;;;10.13;4.25;;;;;;;10.68;67.88;93326.56;5011598;28;20425;-90
2021/04/13 00:36:34;;;;;;;8.68;5.25;;;;;;;10.74;68.58;93332.69;5011640;28;20068;-91
2021/04/13 00:39:14;;;;;;;10.98;5.15;;;;;;;10.68;68.36;93319.66;5011859;28;20046;-90
2021/04/13 00:41:44;;;;;;;10.30;4.18;;;;;;;10.76;68.36;93330.69;5011832;28;20053;-92
2021/04/13 00:44:12;;;;;;;10.52;4.45;;;;;;;10.77;68.43;93338.19;5015570;28;20057;-90
2021/04/13 00:46:44;;;;;;;11.93;5.32;;;;;;;10.83;67.53;93341.69;5017357;28;20050;-89
2021/04/13 00:49:12;;;;;;;10.77;5.03;;;;;;;10.84;67.37;93340.72;4998661;28;20038;-90
2021/04/13 00:51:43;;;;;;;7.78;4.60;;;;;;;10.88;66.62;93349.56;4998432;28;20522;-90
2021/04/13 00:54:13;;;;;;;10.45;4.28;;;;;;;10.91;67.24;93344.03;4998533;28;20073;-90
2021/04/13 00:56:42;;;;;;;13.32;5.07;;;;;;;10.82;66.62;93330.66;4998780;28;20111;-90
2021/04/13 00:59:13;;;;;;;10.98;5.75;;;;;;;10.93;67.10;93338.69;4998636;28;20069;-91
2021/04/13 01:01:43;;;;;;;8.80;4.13;;;;;;;10.77;66.65;93316.84;4998713;28;20054;-92
2021/04/13 01:04:14;;;;;;;8.80;4.70;;;;;;;10.92;67.46;93339.69;4998800;28;20080;-90
2021/04/13 01:06:41;;;;;;;13.20;5.65;;;;;;;10.93;67.57;93339.47;4998483;28;20048;-90
2021/04/13 01:09:17;;;;;;;8.80;3.97;;;;;;;10.79;67.79;93322.56;4998045;28;20068;-90
2021/04/13 01:11:46;;;;;;;7.47;3.33;;;;;;;10.74;67.23;93317.28;5000266;28;20498;-90
2021/04/13 01:14:14;;;;;;;6.05;4.22;;;;;;;10.82;67.64;93330.66;5017745;28;20046;-89
2021/04/13 01:16:44;;;;;;;5.78;3.28;;;;;;;10.86;68.55;93336.16;5017936;28;20057;-90
2021/04/13 01:19:17;;;;;;;6.80;3.42;;;;;;;10.84;68.04;93340.72;5010211;28;20046;-90
2021/04/13 01:21:54;;;;;;;5.47;3.20;;;;;;;10.76;68.84;93333.25;4979050;28;20392;-90
2021/04/13 01:24:24;;;;;;;11.15;4.07;;;;;;;10.76;69.12;93328.91;4978575;28;20538;-89
2021/04/13 01:26:53;;;;;;;6.95;3.40;;;;;;;10.73;69.23;93328.53;4978384;28;20047;-91
2021/04/13 01:29:24;;;;;;;7.95;4.28;;;;;;;10.79;69.42;93328.47;4978490;28;20051;-89
2021/04/13 01:31:54;;;;;;;8.27;4.75;;;;;;;10.72;68.69;93320.03;4978458;28;20062;-89
2021/04/13 01:34:26;;;;;;;8.10;4.00;;;;;;;10.86;68.64;93335.34;4978501;28;20047;-90
2021/04/13 01:37:04;;;;;;;10.27;4.70;;;;;;;10.91;68.62;93344.03;4978401;28;20491;-90
2021/04/13 01:39:35;;;;;;;10.02;3.95;;;;;;;10.90;69.34;93345.03;4978325;28;20066;-90
2021/04/13 01:42:02;;;;;;;8.65;4.85;;;;;;;10.88;70.33;93335.97;4978069;28;20053;-91
2021/04/13 01:44:34;;;;;;;6.32;4.00;;;;;;;10.83;71.20;93329.66;4978206;28;20093;-90
2021/04/13 01:47:02;;;;;;;12.27;4.68;;;;;;;10.77;70.78;93324.53;4978299;28;20051;-90
2021/04/13 01:49:31;;;;;;;11.75;4.55;;;;;;;10.77;71.28;93327.91;4977890;28;20070;-90
2021/04/13 01:51:58;;;;;;;7.35;3.75;;;;;;;10.79;70.99;93332.84;4978234;28;20051;-91
2021/04/13 01:54:26;;;;;;;5.97;3.90;;;;;;;10.79;73.79;93330.28;4978103;28;20051;-91
2021/04/13 01:57:01;;;;;;;11.50;4.38;;;;;;;10.81;74.34;93328.28;4974480;28;20066;-91
2021/04/13 01:59:36;;;;;;;6.97;3.20;;;;;;;10.82;75.48;93333.22;4974944;28;20137;-92
2021/04/13 02:02:12;;;;;;;7.17;4.07;;;;;;;10.83;74.34;93324.50;4980506;28;20046;-92
2021/04/13 02:04:47;;;;;;;11.57;4.45;;;;;;;10.80;73.81;93331.84;4994190;28;20323;-93
2021/04/13 02:07:26;;;;;;;8.75;4.70;;;;;;;10.86;73.56;93335.34;4993895;28;20507;-92
2021/04/13 02:10:01;;;;;;;7.72;3.65;;;;;;;10.81;77.56;93347.06;4993870;28;20550;-94
2021/04/13 02:12:32;;;;;;;5.55;3.20;;;;;;;10.73;77.04;93331.88;5002386;28;20050;-93
2021/04/13 02:15:06;;;;;;;9.90;4.40;;;;;;;10.70;79.30;93340.03;5013886;28;20046;-93
2021/04/13 02:17:38;;;;;;;6.80;4.05;;;;;;;10.64;81.08;93328.00;5013488;28;20050;-93
2021/04/13 02:20:07;;;;;;;7.72;4.07;;;;;;;10.47;87.66;93331.06;4976496;28;20054;-93
2021/04/13 02:22:34;;;;;;;6.53;3.85;;;;;;;10.45;83.43;93330.47;4974962;28;20086;-94
2021/04/13 02:25:04;;;;;;;10.98;5.63;;;;;;;10.60;87.85;93340.44;4974752;28;20408;-92
2021/04/13 02:27:32;;;;;;;9.55;4.70;;;;;;;10.22;85.65;93339.44;4983274;28;20042;-93
2021/04/13 02:30:07;;;;;;;9.82;5.13;;;;;;;10.15;88.38;93328.41;4992606;28;20057;-93
2021/04/13 02:32:35;;;;;;;10.48;5.20;;;;;;;10.11;87.12;93342.63;4991851;28;20062;-93
2021/04/13 02:35:04;;;;;;;15.02;4.95;;;;;;;10.00;92.00;93318.41;4994140;28;20074;-93
2021/04/13 02:37:35;;;;;;;11.90;5.20;;;;;;;10.05;93.86;93340.88;4993201;28;20053;-93
2021/04/13 02:40:06;;;;;;;7.05;5.25;;;;;;;10.04;90.66;93334.94;4989509;28;20059;-92
2021/04/13 02:42:38;;;;;;;8.88;5.57;;;;;;;10.11;90.90;93340.84;4978459;28;20050;-92
2021/04/13 02:45:10;;;;;;;9.35;5.07;;;;;;;10.07;90.16;93326.06;4986893;28;20070;-93
2021/04/13 02:47:44;;;;;;;15.20;6.45;;;;;;;10.23;89.87;93346.13;4974418;28;20441;-93
2021/04/13 02:50:14;;;;;;;8.07;5.28;;;;;;;10.32;87.02;93348.47;4974581;28;20097;-92
2021/04/13 02:52:45;;;;;;;10.77;5.65;;;;;;;10.25;88.62;93336.47;4974525;28;20051;-93
2021/04/13 02:55:21;;;;;;;11.77;5.43;;;;;;;10.45;86.95;93350.22;4974322;28;20046;-93
2021/04/13 02:57:47;;;;;;;;;;;;;;;10.53;87.90;93344.84;4991790;28;20046;-94
2021/04/13 03:00:22;;;;;;;12.98;5.85;;;;;;;10.43;89.65;93351.19;4993723;28;20286;-95
2021/04/13 03:02:54;;;;;;;9.65;6.18;;;;;;;10.31;92.97;93352.03;4986598;28;20042;-94
2021/04/13 03:05:24;;;;;;;12.23;6.55;;;;;;;10.24;92.73;93352.06;4993920;28;20054;-95
2021/04/13 03:07:51;;;;;;;12.80;5.47;;;;;;;10.07;93.87;93339.69;4993787;28;20042;-93
2021/04/13 03:10:20;;;;;;;10.85;5.85;;;;;;;10.07;94.94;93341.44;4994937;28;20046;-94
2021/04/13 03:12:51;;;;;;;13.70;5.65;;;;;;;10.08;96.24;93330.97;5006038;28;20046;-94
2021/04/13 03:15:21;;;;;;;16.10;7.63;;;;;;;9.96;99.96;93333.38;5020485;28;20053;-95
2021/04/13 03:17:51;;;;;;;12.38;7.20;;;;;;;9.99;97.91;93330.44;5016310;28;20081;-95
2021/04/13 03:20:20;;;;;;;14.55;6.82;;;;;;;9.98;96.53;93336.56;5003586;28;20050;-95
2021/04/13 03:22:50;;;;;;;15.27;8.23;;;;;;;9.96;95.93;93332.63;4994300;28;20514;-95
2021/04/13 03:25:16;;;;;;;16.48;8.25;;;;;;;9.82;95.99;93314.69;4995431;28;20426;-95
2021/04/13 03:27:45;;;;;;;17.42;8.73;;;;;;;9.87;96.69;93314.84;4995521;28;20514;-96
2021/04/13 03:30:25;;;;;;;15.52;6.65;;;;;;;9.68;95.92;93282.38;5004679;28;20046;-95
2021/04/13 03:32:56;;;;;;;12.98;6.10;;;;;;;9.48;98.23;93253.22;5005114;28;20046;-96
2021/04/13 03:35:25;;;;;;;9.88;5.35;;;;;;;10.01;97.95;93322.53;4992977;28;20050;-94
2021/04/13 03:37:54;;;;;;;8.45;4.53;;;;;;;9.84;98.55;93299.88;4992265;28;20057;-94
2021/04/13 03:40:23;;;;;;;8.43;4.47;;;;;;;9.78;97.62;93287.88;4992397;28;20054;-94
2021/04/13 03:42:54;;;;;;;8.70;4.55;;;;;;;9.86;99.20;93292.00;4992138;28;20046;-94
2021/04/13 03:45:20;;;;;;;7.28;4.43;;;;;;;9.74;100.00;93271.31;4992078;28;20092;-93
2021/04/13 03:47:48;;;;;;;9.05;4.63;;;;;;;10.01;100.00;93304.56;4992000;28;20499;-93
2021/04/13 03:50:19;;;;;;;8.95;4.18;;;;;;;10.03;100.00;93305.13;4992232;28;20054;-94
2021/04/13 03:52:46;;;;;;;8.30;4.43;;;;;;;10.02;100.00;93308.69;4991834;28;20142;-94
2021/04/13 03:55:17;;;;;;;8.05;4.85;;;;;;;9.94;100.00;93298.66;4991894;28;20554;-94
2021/04/13 03:57:43;;;;;;;10.45;5.10;;;;;;;10.01;100.00;93304.56;4991872;28;20487;-94
2021/04/13 04:00:17;;;;;;;11.13;6.15;;;;;;;9.92;100.00;93295.50;4992092;28;20092;-93
2021/04/13 04:02:43;;;;;;;10.48;7.13;;;;;;;9.93;100.00;93302.22;4991863;28;20418;-93
2021/04/13 04:05:15;;;;;;;16.88;7.03;;;;;;;9.97;100.00;93314.47;4991903;28;20104;-92
2021/04/13 04:07:48;;;;;;;15.52;9.82;;;;;;;10.01;99.69;93315.59;4991857;28;20077;-92
2021/04/13 04:10:35;;;;;;;27.60;10.73;;;;;;;10.06;100.00;93329.59;4991627;28;20529;-91
2021/04/13 04:13:04;;;;;;;16.45;8.23;;;;;;;9.91;100.00;93322.16;5004646;28;20129;-92
2021/04/13 04:15:38;;;;;;;17.13;9.35;;;;;;;9.75;100.00;93295.97;5011550;28;20492;-92
2021/04/13 04:18:12;;;;;;;16.50;8.20;;;;;;;9.94;100.00;93325.09;5010934;28;20046;-90
2021/04/13 04:20:40;;;;;;;23.77;8.15;;;;;;;9.89;100.00;93320.59;5011196;28;20077;-91
2021/04/13 04:23:06;;;;;;;14.93;8.80;;;;;;;9.90;100.00;93326.50;5002151;28;20097;-90
2021/04/13 04:25:36;;;;;;;;;;;;;;;9.93;100.00;93320.19;4992173;28;20054;-92
2021/04/13 04:28:12;;;;;;;15.35;8.68;;;;;;;9.82;100.00;93308.78;4991578;28;19928;-91
2021/04/13 04:30:38;;;;;;;13.13;7.63;;;;;;;9.94;100.00;93321.75;4990548;28;20046;-91
2021/04/13 04:33:05;;;;;;;18.13;10.15;;;;;;;10.02;100.00;93313.84;4990750;28;20746;-91
2021/04/13 04:35:37;;;;;;;19.40;9.55;;;;;;;9.93;100.00;93308.16;4991021;28;20042;-91
2021/04/13 04:38:25;;;;;;;10.60;7.00;;;;;;;9.87;100.00;93316.66;4990802;28;20069;-93
2021/04/13 04:40:56;;;;;;;13.00;8.02;;;;;;;9.50;100.00;93253.03;4989035;28;20132;-92
2021/04/13 04:43:55;;;;;;;14.13;6.85;;;;;;;9.48;100.00;93285.75;4990556;28;20089;-93
2021/04/13 04:46:39;;;;;;;12.77;7.30;;;;;;;9.33;100.00;93250.09;4990224;28;20100;-92
2021/04/13 04:49:09;;;;;;;14.73;9.20;;;;;;;9.52;100.00;93276.69;4988430;28;20050;-92
2021/04/13 04:51:36;;;;;;;16.50;7.07;;;;;;;9.62;100.00;93291.66;4990574;28;20047;-91
2021/04/13 04:54:04;;;;;;;15.57;7.03;;;;;;;9.32;100.00;93281.84;4990524;28;20058;-91
2021/04/13 04:56:32;;;;;;;12.73;7.55;;;;;;;9.00;100.00;93272.22;4988240;28;20130;-91
2021/04/13 04:58:58;;;;;;;13.85;7.13;;;;;;;8.93;100.00;93254.28;4990596;28;20050;-92
2021/04/13 05:01:25;;;;;;;16.17;9.90;;;;;;;9.00;100.00;93254.31;4988181;28;20038;-93
2021/04/13 05:03:52;;;;;;;17.88;10.07;;;;;;;9.02;100.00;93238.72;4990485;28;20462;-92
2021/04/13 05:06:19;;;;;;;21.30;10.48;;;;;;;9.28;100.00;93247.34;4990349;28;20046;-92
2021/04/13 05:08:46;;;;;;;24.88;11.93;;;;;;;9.46;100.00;93241.59;4989130;28;20049;-91
2021/04/13 05:11:13;;;;;;;17.88;10.68;;;;;;;9.57;100.00;93242.75;4990159;28;20169;-90
2021/04/13 05:13:40;;;;;;;26.38;11.32;;;;;;;9.68;100.00;93247.25;4990712;28;20051;-91
2021/04/13 05:16:07;;;;;;;18.88;9.63;;;;;;;9.79;100.00;93245.03;4991060;28;20057;-91
2021/04/13 05:18:33;;;;;;;14.23;9.25;;;;;;;9.91;100.00;93232.38;4991263;28;20101;-92
2021/04/13 05:20:59;;;;;;;14.80;8.45;;;;;;;9.93;100.00;93205.50;4990983;28;20062;-92
2021/04/13 05:23:26;;;;;;;17.27;8.68;;;;;;;10.18;100.00;93220.16;4990968;28;20491;-92
2021/04/13 05:25:55;;;;;;;17.23;7.90;;;;;;;10.18;100.00;93209.91;4990942;28;20101;-93
2021/04/13 05:28:23;;;;;;;34.20;12.38;;;;;;;9.96;100.00;93171.72;4990985;28;20054;-93
2021/04/13 05:30:50;;;;;;;25.35;10.40;;;;;;;9.65;100.00;93128.88;4992177;28;20078;-93
2021/04/13 05:33:17;;;;;;;22.33;9.52;;;;;;;10.03;100.00;93166.56;4994459;28;20184;-93
2021/04/13 05:35:43;;;;;;;21.52;9.20;;;;;;;10.02;100.00;93144.47;4994582;28;20089;-93
2021/04/13 05:38:12;;;;;;;;;;;;;;;10.11;100.00;93143.22;4995428;28;20056;-93
2021/04/13 05:40:40;;;;;;;15.00;8.43;;;;;;;10.10;100.00;93146.00;4994547;28;19922;-93
2021/04/13 05:43:07;;;;;;;10.55;6.45;;;;;;;10.07;100.00;93148.97;4994741;28;20055;-92
2021/04/13 05:45:37;;;;;;;25.27;7.88;;;;;;;9.72;100.00;93112.47;4994869;28;20046;-93
2021/04/13 05:48:04;;;;;;;14.50;7.72;;;;;;;10.13;100.00;93161.75;4994590;28;20046;-95
2021/04/13 05:50:33;;;;;;;10.63;6.78;;;;;;;10.18;100.00;93178.34;4994670;28;20503;-93
2021/04/13 05:53:00;;;;;;;13.32;6.40;;;;;;;10.25;100.00;93179.88;4994309;28;20061;-90
2021/04/13 05:55:29;;;;;;;13.68;5.18;;;;;;;9.98;100.00;93133.03;4992033;28;20054;-91
2021/04/13 05:57:59;;;;;;;8.52;5.40;;;;;;;10.28;100.00;93151.19;4994303;28;20053;-93
2021/04/13 06:00:27;;;;;;;12.23;7.28;;;;;;;9.94;100.00;93109.56;4994257;28;20054;-93
2021/04/13 06:02:55;;;;;;;15.60;5.68;;;;;;;10.23;100.00;93151.03;4994398;28;20054;-93
2021/04/13 06:05:24;;;;;;;15.90;7.18;;;;;;;10.62;100.00;93178.41;4994134;28;20418;-94
2021/04/13 06:07:51;;;;;;;11.63;6.93;;;;;;;10.71;100.00;93173.81;4999118;28;20043;-95
2021/04/13 06:10:18;;;;;;;8.70;5.03;;;;;;;10.80;100.00;93150.19;4995604;28;20141;-95
2021/04/13 06:12:50;;;;;;;9.25;5.40;;;;;;;10.91;100.00;93150.50;4996142;28;20062;-94
2021/04/13 06:15:18;;;;;;;10.93;6.18;;;;;;;11.05;100.00;93151.16;4996612;28;20058;-93
2021/04/13 06:17:45;;;;;;;15.75;6.32;;;;;;;11.11;100.00;93154.66;4994387;28;20054;-91
2021/04/13 06:20:13;;;;;;;;;;;;;;;11.29;100.00;93177.78;4994475;28;20050;-90
2021/04/13 06:22:39;;;;;;;11.63;6.68;;;;;;;11.46;100.00;93187.50;4993922;28;19926;-92
2021/04/13 06:25:07;;;;;;;9.50;5.38;;;;;;;11.32;100.00;93148.28;4993796;28;21323;-93
2021/04/13 06:27:33;;;;;;;11.10;6.97;;;;;;;11.58;100.00;93179.88;4993922;28;20050;-93
2021/04/13 06:29:59;;;;;;;;;;;;;;;11.65;100.00;93180.56;4994669;28;20046;-92
2021/04/13 06:32:25;;;;;;;13.02;6.20;;;;;;;11.68;100.00;93176.78;4993841;28;19956;-92
2021/04/13 06:34:52;;;;;;;;;;;;;;;11.62;100.00;93176.63;4994284;28;20100;-92
2021/04/13 06:37:19;;;;;;;8.45;5.65;;;;;;;11.50;100.00;93180.94;4993780;28;19926;-93
2021/04/13 06:39:46;;;;;;;15.90;6.63;;;;;;;11.52;100.00;93186.63;4993925;28;20062;-93
2021/04/13 06:42:29;;;;;;;;;;;;;;;11.40;100.00;93185.78;4993569;28;20053;-93
2021/04/13 06:45:32;;;;;;;8.55;5.93;;;;;;;11.31;100.00;93183.53;4986709;28;19922;-93
2021/04/13 06:48:25;;;;;;;10.38;6.35;;;;;;;11.33;100.00;93183.28;4934070;29;20094;-93
2021/04/13 06:50:59;;;;;;;13.27;6.50;;;;;;;11.21;100.00;93178.09;4993561;28;20057;-94
2021/04/13 06:53:47;;;;;;;12.93;8.35;;;;;;;11.36;100.00;93183.63;4994676;28;20057;-94
2021/04/13 06:56:32;;;;;;;19.67;8.13;;;;;;;11.42;100.00;93169.16;4995717;28;20054;-93
2021/04/13 06:59:20;;;;;;;14.17;8.73;;;;;;;11.57;100.00;93171.34;4993717;28;20050;-95
2021/04/13 07:01:52;;;;;;;17.70;9.68;;;;;;;11.70;100.00;93159.31;4993638;28;20057;-94
2021/04/13 07:04:25;;;;;;;20.88;9.30;;;;;;;11.87;100.00;93178.31;4966502;28;20042;-95
2021/04/13 07:06:57;;;;;;;16.58;9.20;;;;;;;12.01;100.00;93173.78;4993810;28;20046;-94
2021/04/13 07:09:32;;;;;;;17.67;9.52;;;;;;;12.00;100.00;93179.13;4998222;28;20051;-94
2021/04/13 07:12:04;;;;;;;18.05;9.15;;;;;;;12.23;100.00;93186.16;4992996;28;20054;-94
2021/04/13 07:14:36;;;;;;;18.02;8.73;;;;;;;12.39;100.00;93178.81;4993105;28;20051;-93
2021/04/13 07:17:08;;;;;;;13.30;7.00;;;;;;;12.36;100.00;93168.97;4991867;28;20050;-94
2021/04/13 07:19:39;;;;;;;19.17;8.23;;;;;;;12.46;100.00;93182.09;4992350;28;20046;-94
2021/04/13 07:22:15;;;;;;;12.23;7.63;;;;;;;12.52;100.00;93175.25;4974627;28;20051;-95
2021/04/13 07:24:50;;;;;;;14.50;7.88;;;;;;;12.62;100.00;93169.53;4974234;28;20054;-94
2021/04/13 07:27:21;;;;;;;20.67;7.97;;;;;;;12.77;100.00;93172.47;4973747;28;20049;-94
2021/04/13 07:29:54;;;;;;;17.08;7.15;;;;;;;12.88;100.00;93155.44;4973351;28;20411;-95
2021/04/13 07:32:22;;;;;;;13.80;5.68;;;;;;;13.23;100.00;93169.31;4973643;28;20468;-95
2021/04/13 07:34:53;;;;;;;11.75;6.97;;;;;;;13.49;99.06;93172.44;4973365;28;20047;-96
2021/04/13 07:37:27;;;;;;;13.65;6.65;;;;;;;13.35;100.00;93141.72;4973585;28;20101;-95
2021/04/13 07:39:57;;;;;;;13.50;6.18;;;;;;;13.67;98.93;93166.31;4973594;28;20050;-94
2021/04/13 07:42:26;;;;;;;14.88;6.10;;;;;;;13.74;96.64;93154.06;4985809;28;20046;-95
2021/04/13 07:45:05;;;;;;;12.90;6.30;;;;;;;14.06;96.76;93160.53;4992632;28;20050;-95
2021/04/13 07:48:10;;;;;;;13.52;5.82;;;;;;;14.17;96.02;93161.53;4992283;28;20522;-95
2021/04/13 07:50:51;;;;;;;10.68;6.18;;;;;;;14.19;96.39;93158.69;4992449;28;20141;-95
2021/04/13 07:53:28;;;;;;;12.02;5.50;;;;;;;14.39;95.54;93166.78;4991914;28;20050;-91
2021/04/13 07:56:00;;;;;;;14.35;7.32;;;;;;;14.39;96.61;93155.66;4992275;28;20069;-94
2021/04/13 07:58:38;;;;;;;12.18;4.70;;;;;;;14.45;95.12;93159.09;4992539;28;20097;-89
2021/04/13 08:01:07;;;;;;;7.75;4.72;;;;;;;14.65;94.28;93167.19;4992292;28;20057;-93
2021/04/13 08:03:34;;;;;;;9.50;4.90;;;;;;;14.70;92.74;93169.06;4992192;28;20056;-94
2021/04/13 08:06:03;;;;;;;7.45;4.25;;;;;;;14.64;92.47;93163.03;4992293;28;20096;-90
2021/04/13 08:08:32;;;;;;;9.50;4.57;;;;;;;14.61;93.78;93160.13;4992009;28;20116;-94
2021/04/13 08:11:13;;;;;;;7.40;3.90;;;;;;;14.47;94.25;93157.84;4991829;28;20053;-95
2021/04/13 08:13:42;;;;;;;9.40;4.70;;;;;;;14.41;94.58;93163.97;4991643;28;20053;-90
2021/04/13 08:16:27;;;;;;;9.60;4.88;;;;;;;14.48;93.13;93159.41;4991983;28;20050;-93
2021/04/13 08:19:10;;;;;;;7.80;4.55;;;;;;;14.34;95.68;93161.53;4991839;28;20093;-94
2021/04/13 08:21:37;;;;;;;8.90;5.10;;;;;;;14.49;94.59;93153.22;4992107;28;20391;-94
2021/04/13 08:24:04;;;;;;;8.88;6.20;;;;;;;14.50;93.85;93144.47;4992554;28;20054;-95
2021/04/13 08:26:44;;;;;;;12.30;6.53;;;;;;;14.22;92.46;93153.06;4992800;28;20050;-96
2021/04/13 08:29:17;;;;;;;9.55;5.90;;;;;;;14.27;93.28;93153.16;4992608;28;20057;-94
2021/04/13 08:34:48;;;;;;;9.18;6.00;;;;;;;14.34;92.24;93132.34;4992925;28;20104;-95
2021/04/13 08:37:30;;;;;;;8.90;5.38;;;;;;;14.52;90.36;93155.34;4992798;28;20047;-95
2021/04/13 08:40:16;;;;;;;35.78;10.05;;;;;;;14.80;91.37;93156.31;4992831;28;20053;-95
2021/04/13 08:42:48;;;;;;;19.42;8.25;;;;;;;14.96;90.57;93141.78;4993772;28;20047;-95
2021/04/13 08:45:23;;;;;;;13.23;5.45;;;;;;;14.96;88.06;93154.69;4992562;28;20046;-95
2021/04/13 08:47:52;;;;;;;12.68;6.00;;;;;;;14.85;88.08;93136.72;4993131;28;20047;-95
2021/04/13 08:50:29;;;;;;;13.15;5.63;;;;;;;15.13;87.89;93147.94;4994651;28;20133;-94
2021/04/13 08:52:58;;;;;;;8.20;5.15;;;;;;;15.30;87.23;93153.06;4994056;28;20050;-94
2021/04/13 08:55:43;;;;;;;11.00;5.45;;;;;;;15.42;87.13;93152.97;4993986;28;20137;-95
2021/04/13 08:58:38;;;;;;;11.35;5.80;;;;;;;15.46;86.90;93154.81;4993165;28;20081;-93
2021/04/13 09:01:23;;;;;;;44.05;12.77;;;;;;;15.47;86.96;93138.25;4991667;28;20054;-93
2021/04/13 09:03:49;;;;;;;109.43;30.97;;;;;;;15.52;87.68;93149.69;4991745;28;20050;-92
2021/04/13 09:06:28;;;;;;;45.83;14.63;;;;;;;15.49;85.95;93144.00;4996051;28;20051;-92
2021/04/13 09:09:04;;;;;;;101.10;31.85;;;;;;;15.46;84.96;93141.88;4995807;28;20384;-94
2021/04/13 09:11:39;;;;;;;96.53;30.20;;;;;;;15.38;84.65;93138.94;4995813;28;20058;-93
2021/04/13 09:14:18;;;;;;;126.30;35.88;;;;;;;15.34;85.10;93144.59;4997753;28;20517;-94
2021/04/13 09:16:55;;;;;;;100.25;33.70;;;;;;;15.16;85.29;93129.34;4996388;28;20042;-94
2021/04/13 09:19:26;;;;;;;82.95;25.05;;;;;;;15.19;85.25;93140.00;4997827;28;20057;-92
2021/04/13 09:21:53;;;;;;;29.13;10.77;;;;;;;15.08;85.98;93135.72;4996926;28;20054;-93
2021/04/13 09:24:26;;;;;;;27.63;9.30;;;;;;;14.69;87.00;93116.56;4997726;28;20046;-92
2021/04/13 09:27:15;;;;;;;19.42;7.70;;;;;;;14.67;88.52;93128.16;4997226;28;20046;-94
2021/04/13 09:29:45;;;;;;;22.35;10.70;;;;;;;14.44;90.23;93129.88;4996261;28;20057;-93
2021/04/13 09:32:33;;;;;;;10.75;5.82;;;;;;;14.34;91.58;93132.34;4995832;28;20062;-93
2021/04/13 09:35:29;;;;;;;11.80;7.60;;;;;;;14.24;91.67;93138.09;4995630;28;20057;-93
2021/04/13 09:38:07;;;;;;;13.90;8.70;;;;;;;14.07;92.26;93128.53;4995617;28;20054;-94
2021/04/13 09:40:46;;;;;;;10.88;6.38;;;;;;;13.88;93.81;93123.59;4995204;28;20092;-92
2021/04/13 09:43:52;;;;;;;8.35;4.88;;;;;;;13.55;94.98;93116.53;4994955;28;20047;-93
2021/04/13 09:46:43;;;;;;;5.95;3.20;;;;;;;13.52;96.01;93120.34;4965586;28;20047;-94
2021/04/13 09:49:26;;;;;;;7.47;4.00;;;;;;;13.31;97.15;93114.00;4994883;28;20069;-91
2021/04/13 09:52:29;;;;;;;5.72;3.00;;;;;;;13.09;98.84;93114.59;4994627;28;20058;-91
2021/04/13 09:55:05;;;;;;;7.70;4.60;;;;;;;12.99;100.00;93101.50;4972643;28;20073;-91
2021/04/13 09:57:53;;;;;;;7.85;3.50;;;;;;;12.87;100.00;93107.47;4995303;28;20506;-90
2021/04/13 10:00:44;;;;;;;10.15;4.05;;;;;;;12.60;100.00;93071.88;4995098;28;20047;-87
2021/04/13 10:03:58;;;;;;;7.50;4.10;;;;;;;12.56;100.00;93073.31;4994863;28;20046;-93
2021/04/13 10:06:34;;;;;;;8.13;3.40;;;;;;;12.67;100.00;93087.19;4968648;28;20105;-91
2021/04/13 10:09:08;;;;;;;;;;;;;;;12.54;100.00;93091.56;4995172;28;20086;-89
2021/04/13 10:12:18;;;;;;;8.00;3.85;;;;;;;12.48;100.00;93076.22;4994400;28;19926;-93
2021/04/13 10:15:19;;;;;;;5.57;3.50;;;;;;;12.37;100.00;93059.78;4995108;28;20090;-90
2021/04/13 10:18:12;;;;;;;5.80;3.70;;;;;;;12.45;100.00;93059.41;4993641;28;20392;-91
2021/04/13 10:20:49;;;;;;;13.63;5.20;;;;;;;12.61;100.00;93075.22;4985249;28;20062;-92
2021/04/13 10:23:49;;;;;;;17.80;7.05;;;;;;;12.74;100.00;93075.00;4994479;28;20056;-92
2021/04/13 10:27:03;;;;;;;13.48;5.10;;;;;;;12.81;100.00;93069.69;4994657;28;20053;-91
2021/04/13 10:30:18;;;;;;;10.60;4.30;;;;;;;12.94;99.68;93076.41;4994650;28;20050;-93
2021/04/13 10:33:07;;;;;;;7.40;3.53;;;;;;;13.00;99.95;93090.97;4994259;28;20058;-93
2021/04/13 10:36:04;;;;;;;6.57;3.10;;;;;;;13.30;98.50;93091.78;4995647;28;20315;-92
2021/04/13 10:39:22;;;;;;;5.97;3.72;;;;;;;13.55;94.68;93078.63;4994483;28;20054;-91
2021/04/13 10:42:34;;;;;;;10.65;4.20;;;;;;;13.55;92.02;93055.38;4989120;28;20108;-93
2021/04/13 10:45:43;;;;;;;8.68;3.15;;;;;;;13.81;93.29;93053.25;4993835;28;20552;-93
2021/04/13 10:48:54;;;;;;;5.93;3.17;;;;;;;13.81;90.88;93050.66;4994014;28;20047;-92
2021/04/13 10:51:47;;;;;;;3.58;2.70;;;;;;;13.81;88.70;93057.63;4994146;28;20637;-93
2021/04/13 10:54:55;;;;;;;5.10;3.28;;;;;;;13.88;85.39;93051.28;4993698;28;20050;-91
2021/04/13 10:57:55;;;;;;;5.90;3.88;;;;;;;13.91;85.46;93042.28;4993830;28;20046;-91
2021/04/13 11:01:04;;;;;;;6.80;4.20;;;;;;;13.93;83.35;93042.06;4991179;28;20061;-90
2021/04/13 11:04:12;;;;;;;5.72;2.75;;;;;;;13.99;84.26;93044.47;4962469;28;20058;-92
2021/04/13 11:07:23;;;;;;;4.90;2.42;;;;;;;14.01;83.59;93047.63;4993262;28;20450;-94
2021/04/13 11:10:21;;;;;;;4.78;1.98;;;;;;;14.14;84.72;93046.53;4994163;28;20050;-92
2021/04/13 11:13:10;;;;;;;6.00;2.38;;;;;;;14.09;83.02;93059.38;4992978;28;20648;-93
2021/04/13 11:16:06;;;;;;;4.28;2.47;;;;;;;14.10;82.28;93062.72;4993983;28;20050;-92
2021/04/13 11:18:57;;;;;;;5.57;2.65;;;;;;;14.08;83.05;93052.63;4993565;28;20042;-92
2021/04/13 11:22:10;;;;;;;;;;;;;;;;;;;;;
2021/04/13 11:24:56;;;;;;;7.60;3.63;;;;;;;13.89;83.35;93029.59;4990258;28;20058;-89
2021/04/13 11:27:51;;;;;;;3.63;1.60;;;;;;;13.80;83.44;93007.00;4990993;28;20054;-90
2021/04/13 11:31:03;;;;;;;3.45;1.83;;;;;;;13.85;82.48;93002.69;4990452;28;20387;-91
2021/04/13 11:34:05;;;;;;;4.53;2.58;;;;;;;13.77;78.36;92992.78;4993129;28;20068;-90
2021/04/13 11:36:43;;;;;;;5.85;1.77;;;;;;;13.84;76.36;93013.28;4959347;28;20054;-91
2021/04/13 11:39:22;;;;;;;4.85;2.28;;;;;;;13.94;75.51;93005.69;4991131;28;20046;-92
2021/04/13 11:42:14;;;;;;;4.25;2.05;;;;;;;14.05;75.09;93000.66;4990989;28;20046;-93
2021/04/13 11:44:49;;;;;;;6.72;2.97;;;;;;;14.03;75.00;92985.41;4990439;28;20461;-92
2021/04/13 11:47:26;;;;;;;2.40;1.37;;;;;;;14.19;72.87;93001.09;4992339;28;20047;-91
2021/04/13 11:50:00;;;;;;;5.10;2.17;;;;;;;14.29;72.74;92991.72;4992061;28;20050;-88
2021/04/13 11:52:34;;;;;;;9.35;3.05;;;;;;;14.40;72.60;92978.94;4993075;28;20437;-94
2021/04/13 11:55:01;;;;;;;3.40;1.70;;;;;;;14.52;71.43;92981.38;4990673;28;20108;-93
2021/04/13 11:57:30;;;;;;;4.63;2.08;;;;;;;14.73;71.76;92986.81;4992592;28;20096;-91
2021/04/13 12:00:27;;;;;;;4.32;2.08;;;;;;;14.85;70.64;92991.91;4989974;28;20414;-92
2021/04/13 12:03:22;;;;;;;3.45;1.92;;;;;;;14.93;68.91;92984.50;4990946;28;20061;-92
2021/04/13 12:05:50;;;;;;;6.55;3.00;;;;;;;15.02;69.64;92961.56;4967110;28;20050;-92
2021/04/13 12:08:49;;;;;;;8.40;1.77;;;;;;;15.39;67.67;92980.81;4982198;28;20054;-92
2021/04/13 12:11:44;;;;;;;4.28;1.40;;;;;;;15.52;66.58;92977.06;4983018;28;20043;-94
2021/04/13 12:14:29;;;;;;;7.03;1.73;;;;;;;15.30;60.79;92936.47;4975347;28;20051;-93